Time;durP1;ratioP1;P1;durP2;ratioP2;P2;SDS_P1;SDS_P2;PMS_P1;PMS_P2;Temp;Humidity;BMP_temperature;BMP_pressure;BME280_temperature;BME280_humidity;BME280_pressure;Samples;Min_cycle;Max_cycle;Signal;HPM_P1;HPM_P2
2022/09/29 00:00:35;;;;;;;5.13;3.05;;;;;;;9.31;93.35;99259.41;5008962;28;20041;-66
2022/09/29 00:03:01;;;;;;;7.65;3.67;;;;;;;9.29;93.26;99263.63;5005886;28;20041;-67
2022/09/29 00:05:26;;;;;;;5.45;3.35;;;;;;;9.27;93.66;99255.94;5009304;28;20038;-67
2022/09/29 00:07:52;;;;;;;8.73;3.03;;;;;;;9.22;93.46;99263.59;5009285;28;20029;-66
2022/09/29 00:10:18;;;;;;;6.47;3.33;;;;;;;9.15;93.62;99258.22;4990954;28;20030;-66
2022/09/29 00:12:43;;;;;;;4.40;2.90;;;;;;;9.09;93.95;99258.59;5009272;28;20030;-66
2022/09/29 00:15:09;;;;;;;4.60;2.60;;;;;;;9.05;94.02;99259.72;5008201;28;20482;-66
2022/09/29 00:17:34;;;;;;;4.60;2.50;;;;;;;9.14;93.56;99256.69;5009007;28;20038;-67
2022/09/29 00:20:00;;;;;;;3.78;2.75;;;;;;;9.16;93.10;99260.50;5009470;28;20037;-66
2022/09/29 00:22:26;;;;;;;4.78;2.40;;;;;;;9.09;93.17;99257.81;5008021;28;20034;-67
2022/09/29 00:24:51;;;;;;;4.50;2.33;;;;;;;9.10;93.16;99252.06;5009437;28;20037;-68
2022/09/29 00:27:17;;;;;;;5.50;2.30;;;;;;;8.99;93.12;99255.84;5010557;28;20073;-67
2022/09/29 00:29:43;;;;;;;12.13;3.72;;;;;;;8.94;93.47;99261.59;5008915;28;20084;-67
2022/09/29 00:32:09;;;;;;;4.50;2.63;;;;;;;9.01;92.89;99258.94;4992110;28;20061;-67
2022/09/29 00:34:34;;;;;;;5.97;3.38;;;;;;;8.98;92.69;99257.75;4995561;28;20409;-67
2022/09/29 00:37:00;;;;;;;6.68;2.95;;;;;;;8.91;92.96;99260.44;5008140;28;20037;-67
2022/09/29 00:39:25;;;;;;;4.18;2.78;;;;;;;8.90;93.18;99264.25;5008205;28;20084;-67
2022/09/29 00:41:51;;;;;;;5.53;3.70;;;;;;;8.85;93.01;99253.88;5017520;28;20144;-65
2022/09/29 00:44:18;;;;;;;5.95;2.75;;;;;;;8.72;93.54;99257.28;5009461;28;20375;-66
2022/09/29 00:47:01;;;;;;;5.35;2.78;;;;;;;8.71;93.80;99263.78;5010154;28;20502;-66
2022/09/29 00:49:42;;;;;;;3.10;2.45;;;;;;;8.71;94.14;99258.44;5009888;28;20041;-66
2022/09/29 00:52:31;;;;;;;5.70;2.85;;;;;;;8.72;93.64;99252.69;4993895;28;20053;-66
2022/09/29 00:55:03;;;;;;;5.45;3.20;;;;;;;8.74;93.90;99252.28;5008529;28;20030;-66
2022/09/29 00:57:36;;;;;;;4.53;3.00;;;;;;;8.69;93.64;99253.41;4998778;28;20038;-65
2022/09/29 01:00:09;;;;;;;9.73;2.55;;;;;;;8.64;93.99;99256.47;5010126;28;20366;-66
2022/09/29 01:02:39;;;;;;;5.40;2.75;;;;;;;8.73;93.84;99254.19;5006244;28;20144;-67
2022/09/29 01:05:11;;;;;;;6.23;3.53;;;;;;;8.75;93.80;99251.16;5009254;28;20026;-67
2022/09/29 01:07:37;;;;;;;4.53;2.53;;;;;;;8.73;93.31;99251.53;4989683;28;20072;-67
2022/09/29 01:10:05;;;;;;;4.97;2.50;;;;;;;8.72;94.00;99250.00;5009689;28;20556;-67
2022/09/29 01:12:31;;;;;;;8.02;3.13;;;;;;;8.70;93.65;99254.97;4983897;28;20045;-65
2022/09/29 01:14:57;;;;;;;4.20;2.30;;;;;;;8.63;94.08;99254.16;5009223;28;20553;-67
2022/09/29 01:17:23;;;;;;;3.85;2.45;;;;;;;8.69;94.27;99249.97;5013031;28;20506;-67
2022/09/29 01:19:48;;;;;;;4.90;2.58;;;;;;;8.71;94.29;99256.50;5011168;28;20034;-67
2022/09/29 01:22:32;;;;;;;4.43;2.78;;;;;;;8.78;94.14;99253.88;5007445;28;20040;-63
2022/09/29 01:25:25;;;;;;;3.95;2.47;;;;;;;8.82;93.98;99257.34;5009993;28;20414;-65
2022/09/29 01:27:50;;;;;;;4.78;2.33;;;;;;;8.85;93.59;99259.25;5013669;28;20065;-67
2022/09/29 01:30:48;;;;;;;5.45;2.75;;;;;;;8.75;93.24;99256.53;5012289;28;20084;-64
2022/09/29 01:33:38;;;;;;;4.13;2.38;;;;;;;8.71;93.88;99251.13;5001284;28;20049;-66
2022/09/29 01:36:10;;;;;;;4.65;2.80;;;;;;;8.71;94.35;99261.13;5012607;28;20674;-67
2022/09/29 01:39:09;;;;;;;4.85;2.60;;;;;;;8.79;94.00;99255.38;5018736;28;20034;-67
2022/09/29 01:41:49;;;;;;;8.60;2.95;;;;;;;8.81;93.65;99250.41;5008769;28;20048;-67
2022/09/29 01:44:24;;;;;;;9.98;3.17;;;;;;;8.76;94.17;99258.84;4978469;28;20038;-66
2022/09/29 01:47:05;;;;;;;4.45;2.70;;;;;;;8.80;93.89;99256.94;5011880;28;20083;-67
2022/09/29 01:49:35;;;;;;;3.75;2.25;;;;;;;8.78;93.77;99253.88;5012979;28;20048;-66
2022/09/29 01:52:24;;;;;;;6.60;3.35;;;;;;;8.79;93.95;99247.34;4994766;28;20030;-66
2022/09/29 01:54:55;;;;;;;4.53;2.80;;;;;;;8.80;93.90;99246.19;5011041;28;20026;-67
2022/09/29 01:57:45;;;;;;;6.75;3.25;;;;;;;8.74;93.91;99245.03;5009969;28;20064;-67
2022/09/29 02:00:16;;;;;;;5.80;2.58;;;;;;;8.75;93.82;99251.91;5011067;28;20030;-66
2022/09/29 02:02:47;;;;;;;4.68;2.22;;;;;;;8.75;93.93;99241.19;5011182;28;20492;-67
2022/09/29 02:05:19;;;;;;;7.53;3.22;;;;;;;8.76;93.81;99244.63;5011314;28;20029;-66
2022/09/29 02:07:46;;;;;;;4.93;2.88;;;;;;;8.73;93.57;99251.53;5010609;28;20044;-67
2022/09/29 02:10:24;;;;;;;4.90;2.50;;;;;;;8.67;93.97;99253.03;5018115;28;20038;-67
2022/09/29 02:12:52;;;;;;;4.57;2.45;;;;;;;8.65;93.84;99258.00;5008661;28;20152;-67
2022/09/29 02:15:25;;;;;;;4.10;2.38;;;;;;;8.63;94.04;99262.22;4982350;28;20033;-67
2022/09/29 02:17:53;;;;;;;5.55;2.42;;;;;;;8.65;94.11;99249.94;5012448;28;20513;-67
2022/09/29 02:20:19;;;;;;;4.57;2.70;;;;;;;8.65;93.93;99255.31;5011670;28;20029;-66
2022/09/29 02:22:45;;;;;;;3.97;2.33;;;;;;;8.59;93.85;99253.38;5010110;28;20121;-66
2022/09/29 02:25:14;;;;;;;4.53;2.70;;;;;;;8.60;94.30;99249.53;5010566;28;20125;-67
2022/09/29 02:27:39;;;;;;;4.18;2.50;;;;;;;8.56;93.95;99252.22;5010234;28;20418;-66
2022/09/29 02:30:06;;;;;;;3.70;2.35;;;;;;;8.54;94.32;99246.44;5018350;28;20021;-66
2022/09/29 02:32:34;;;;;;;5.25;2.60;;;;;;;8.56;94.61;99260.25;5012590;28;20120;-66
2022/09/29 02:35:01;;;;;;;3.92;2.75;;;;;;;8.51;94.54;99252.56;5006849;28;20030;-66
2022/09/29 02:37:43;;;;;;;4.95;2.40;;;;;;;8.48;94.17;99258.66;5009667;28;20045;-66
2022/09/29 02:40:27;;;;;;;5.13;3.03;;;;;;;8.51;94.34;99257.94;5009462;28;20119;-65
2022/09/29 02:43:01;;;;;;;4.65;2.88;;;;;;;8.47;94.25;99251.78;5013436;28;20092;-66
2022/09/29 02:45:46;;;;;;;4.53;2.50;;;;;;;8.54;94.15;99262.53;5011836;28;20030;-66
2022/09/29 02:48:27;;;;;;;5.95;2.85;;;;;;;8.61;93.22;99259.91;4992344;28;20033;-66
2022/09/29 02:51:31;;;;;;;4.03;2.15;;;;;;;8.50;93.61;99250.25;5017748;28;20073;-66
2022/09/29 02:54:14;;;;;;;3.97;2.08;;;;;;;8.51;93.49;99255.25;5010399;28;20107;-66
2022/09/29 02:56:42;;;;;;;6.10;2.60;;;;;;;8.46;93.83;99258.28;5010870;28;20028;-67
2022/09/29 02:59:19;;;;;;;5.35;2.63;;;;;;;8.44;94.01;99263.25;4993423;28;20056;-67
2022/09/29 03:01:51;;;;;;;6.43;3.00;;;;;;;8.43;94.21;99259.03;5010873;28;20040;-67
2022/09/29 03:04:19;;;;;;;3.35;2.22;;;;;;;8.40;93.72;99259.78;5017222;28;20033;-66
2022/09/29 03:06:45;;;;;;;5.72;2.90;;;;;;;8.33;93.94;99264.31;5009205;28;20022;-66
2022/09/29 03:09:11;;;;;;;5.45;2.67;;;;;;;8.34;94.13;99263.19;5010591;28;20461;-66
2022/09/29 03:11:36;;;;;;;4.15;2.75;;;;;;;8.32;94.35;99255.53;5010233;28;20040;-67
2022/09/29 03:14:02;;;;;;;3.42;2.30;;;;;;;8.30;93.94;99257.03;5010331;28;20036;-66
2022/09/29 03:16:27;;;;;;;5.63;2.88;;;;;;;8.24;94.26;99264.63;4990858;28;20395;-67
2022/09/29 03:18:54;;;;;;;5.00;2.83;;;;;;;8.25;94.44;99268.88;5010177;28;20034;-66
2022/09/29 03:21:19;;;;;;;4.72;2.92;;;;;;;8.29;94.48;99264.31;5010067;28;20529;-66
2022/09/29 03:23:44;;;;;;;4.57;2.72;;;;;;;8.36;94.67;99255.53;5007406;28;20064;-66
2022/09/29 03:26:10;;;;;;;3.17;2.45;;;;;;;8.37;94.18;99257.84;5016612;28;20040;-66
2022/09/29 03:28:35;;;;;;;4.68;2.35;;;;;;;8.29;94.32;99256.25;4993083;28;20417;-66
2022/09/29 03:31:10;;;;;;;3.72;2.47;;;;;;;8.30;94.45;99260.50;5010032;28;20084;-66
2022/09/29 03:33:38;;;;;;;3.95;3.00;;;;;;;8.23;94.46;99261.19;5008599;28;20026;-66
2022/09/29 03:36:05;;;;;;;4.82;2.63;;;;;;;8.21;94.56;99268.81;5018269;28;20037;-66
2022/09/29 03:38:32;;;;;;;3.80;2.60;;;;;;;8.27;94.81;99265.81;5009852;28;20125;-66
2022/09/29 03:40:57;;;;;;;6.00;2.42;;;;;;;8.27;94.69;99266.59;5010695;28;20042;-66
2022/09/29 03:43:23;;;;;;;4.45;2.65;;;;;;;8.23;95.13;99274.59;5013837;28;20049;-66
2022/09/29 03:45:50;;;;;;;6.07;2.65;;;;;;;8.35;95.49;99267.41;5020628;28;20105;-66
2022/09/29 03:48:16;;;;;;;4.38;2.38;;;;;;;8.31;95.15;99270.06;5007286;28;20360;-66
2022/09/29 03:50:44;;;;;;;4.82;2.58;;;;;;;8.30;95.38;99265.84;5015501;28;20037;-66
2022/09/29 03:53:09;;;;;;;5.28;2.78;;;;;;;8.29;95.43;99266.22;5015881;28;20128;-66
2022/09/29 03:55:34;;;;;;;4.43;2.35;;;;;;;8.29;95.38;99269.66;5010853;28;20558;-66
2022/09/29 03:58:00;;;;;;;3.88;2.33;;;;;;;8.28;94.95;99262.78;5008553;28;20092;-66
2022/09/29 04:00:25;;;;;;;6.93;2.53;;;;;;;8.33;94.78;99277.72;5026343;28;20091;-66
2022/09/29 04:02:53;;;;;;;3.85;2.80;;;;;;;8.25;95.03;99282.28;5014367;28;20038;-66
2022/09/29 04:05:19;;;;;;;4.00;2.55;;;;;;;8.23;95.48;99281.84;5010256;28;20061;-66
2022/09/29 04:07:45;;;;;;;7.25;3.17;;;;;;;8.36;94.67;99280.47;5009841;28;20064;-66
2022/09/29 04:10:10;;;;;;;4.70;2.45;;;;;;;8.29;94.73;99283.06;5010698;28;20037;-66
2022/09/29 04:12:35;;;;;;;5.97;3.17;;;;;;;8.23;94.79;99278.44;5016300;28;20030;-66
2022/09/29 04:15:01;;;;;;;4.50;2.45;;;;;;;8.25;95.45;99276.91;5018351;28;20529;-66
2022/09/29 04:17:26;;;;;;;4.35;2.67;;;;;;;8.28;95.48;99286.91;5010910;28;20038;-66
2022/09/29 04:19:52;;;;;;;5.22;2.42;;;;;;;8.30;95.40;99294.59;5007381;28;20068;-66
2022/09/29 04:22:17;;;;;;;4.13;2.38;;;;;;;8.31;95.67;99291.53;5013691;28;20486;-66
2022/09/29 04:24:44;;;;;;;5.05;2.83;;;;;;;8.42;95.61;99294.28;5019022;28;20045;-66
2022/09/29 04:27:09;;;;;;;4.32;2.45;;;;;;;8.44;95.11;99300.06;5017271;28;20026;-66
2022/09/29 04:29:34;;;;;;;4.85;2.33;;;;;;;8.39;95.01;99293.13;5010474;28;20390;-66
2022/09/29 04:32:00;;;;;;;4.32;2.72;;;;;;;8.30;95.62;99294.59;5010406;28;20041;-66
2022/09/29 04:34:25;;;;;;;5.20;3.22;;;;;;;8.19;95.50;99294.47;5010122;28;20164;-66
2022/09/29 04:36:52;;;;;;;3.75;2.33;;;;;;;8.18;95.91;99292.94;5009283;28;20349;-66
2022/09/29 04:39:17;;;;;;;6.05;2.72;;;;;;;8.24;95.65;99296.81;5010278;28;20041;-66
2022/09/29 04:41:43;;;;;;;6.30;3.50;;;;;;;8.27;95.37;99298.78;5006776;28;20042;-66
2022/09/29 04:44:08;;;;;;;4.10;2.80;;;;;;;8.40;95.34;99301.94;5009446;28;20513;-66
2022/09/29 04:46:33;;;;;;;4.95;2.92;;;;;;;8.47;95.43;99301.97;5011483;28;20064;-66
2022/09/29 04:48:59;;;;;;;6.35;3.50;;;;;;;8.31;96.69;99304.94;5015498;28;20088;-66
2022/09/29 04:51:24;;;;;;;5.10;3.00;;;;;;;8.46;96.51;99300.44;5022542;28;20038;-66
2022/09/29 04:53:52;;;;;;;7.18;3.10;;;;;;;8.46;96.41;99303.13;5013049;28;20046;-65
2022/09/29 04:56:17;;;;;;;6.47;3.60;;;;;;;8.50;96.61;99312.72;5011618;28;20121;-66
2022/09/29 04:58:43;;;;;;;3.88;2.70;;;;;;;8.51;96.71;99306.22;5015613;28;20465;-65
2022/09/29 05:01:13;;;;;;;5.22;2.47;;;;;;;8.51;96.38;99313.50;5015954;28;20111;-66
2022/09/29 05:03:40;;;;;;;4.68;2.83;;;;;;;8.51;96.37;99310.81;5019103;28;20042;-66
2022/09/29 05:06:08;;;;;;;5.03;2.80;;;;;;;8.52;96.24;99315.03;5013270;28;20025;-65
2022/09/29 05:08:33;;;;;;;4.30;2.70;;;;;;;8.64;95.73;99320.88;5014247;28;20113;-65
2022/09/29 05:11:05;;;;;;;3.95;2.55;;;;;;;8.65;96.04;99316.28;5012394;28;20045;-66
2022/09/29 05:13:30;;;;;;;14.77;3.53;;;;;;;8.68;96.53;99320.88;5011794;28;20438;-65
2022/09/29 05:15:56;;;;;;;4.70;2.63;;;;;;;8.72;96.35;99311.72;5011864;28;20038;-66
2022/09/29 05:18:23;;;;;;;5.78;3.08;;;;;;;8.65;96.69;99319.72;5012459;28;20582;-66
2022/09/29 05:20:48;;;;;;;7.85;3.83;;;;;;;8.74;96.70;99316.72;5024389;28;20029;-67
2022/09/29 05:23:14;;;;;;;8.25;3.38;;;;;;;8.74;96.87;99322.84;5013210;28;20038;-67
2022/09/29 05:25:43;;;;;;;12.93;3.20;;;;;;;8.69;97.11;99323.19;5002515;28;20037;-68
2022/09/29 05:28:09;;;;;;;7.38;3.50;;;;;;;8.62;97.74;99323.16;5007618;28;20442;-66
2022/09/29 05:30:35;;;;;;;6.65;3.78;;;;;;;8.60;98.20;99320.06;5018873;28;20037;-67
2022/09/29 05:33:01;;;;;;;6.75;3.78;;;;;;;8.48;99.39;99331.09;5012881;28;20038;-67
2022/09/29 05:35:26;;;;;;;8.48;3.13;;;;;;;8.61;99.09;99321.63;5005135;28;20064;-68
2022/09/29 05:37:52;;;;;;;8.35;2.92;;;;;;;8.72;98.82;99322.44;4997311;28;20038;-68
2022/09/29 05:40:18;;;;;;;7.07;3.45;;;;;;;8.80;98.71;99328.63;5013186;28;20080;-67
2022/09/29 05:42:44;;;;;;;8.10;3.58;;;;;;;8.73;99.24;99328.59;5012024;28;20080;-68
2022/09/29 05:45:10;;;;;;;11.00;3.90;;;;;;;8.69;99.25;99325.88;5010339;28;20038;-67
2022/09/29 05:47:41;;;;;;;6.13;3.22;;;;;;;8.65;99.91;99321.66;5010165;28;20034;-68
2022/09/29 05:50:06;;;;;;;5.63;3.08;;;;;;;8.78;100.00;99326.31;5003407;28;20041;-67
2022/09/29 05:52:32;;;;;;;7.88;3.88;;;;;;;8.88;99.70;99327.53;5006642;28;20036;-66
2022/09/29 05:54:57;;;;;;;5.63;3.33;;;;;;;8.88;100.00;99330.97;5004266;28;20030;-67
2022/09/29 05:57:22;;;;;;;5.43;3.30;;;;;;;8.99;99.60;99331.81;5008474;28;20493;-68
2022/09/29 05:59:48;;;;;;;7.22;3.83;;;;;;;9.09;99.44;99330.31;5008413;28;20087;-67
2022/09/29 06:02:14;;;;;;;7.45;3.78;;;;;;;9.05;99.31;99338.34;5012303;28;20121;-66
2022/09/29 06:04:39;;;;;;;8.40;4.15;;;;;;;9.02;100.00;99325.66;5011186;28;20033;-67
2022/09/29 06:07:05;;;;;;;5.85;3.78;;;;;;;9.13;100.00;99331.09;5004559;28;20034;-68
2022/09/29 06:09:32;;;;;;;9.75;4.05;;;;;;;9.15;100.00;99320.75;5000352;28;20081;-67
2022/09/29 06:11:57;;;;;;;12.30;4.57;;;;;;;9.21;100.00;99329.22;5010073;28;20053;-67
2022/09/29 06:14:23;;;;;;;6.75;3.63;;;;;;;9.06;100.00;99325.69;5009118;28;20057;-67
2022/09/29 06:16:49;;;;;;;8.57;3.72;;;;;;;9.29;100.00;99334.22;5003087;28;20498;-67
2022/09/29 06:19:14;;;;;;;6.40;4.00;;;;;;;9.24;100.00;99336.50;5007391;28;20037;-67
2022/09/29 06:21:40;;;;;;;8.68;4.13;;;;;;;9.30;100.00;99332.31;5008714;28;20417;-67
2022/09/29 06:24:06;;;;;;;6.50;3.50;;;;;;;9.35;100.00;99342.69;5007967;28;20549;-66
2022/09/29 06:26:32;;;;;;;11.60;3.42;;;;;;;9.50;100.00;99336.22;5001379;28;20034;-66
2022/09/29 06:28:57;;;;;;;7.03;4.13;;;;;;;9.56;100.00;99332.03;5005420;28;20050;-66
2022/09/29 06:31:25;;;;;;;12.35;4.85;;;;;;;9.55;100.00;99335.84;5002447;28;20080;-67
2022/09/29 06:33:51;;;;;;;7.50;3.83;;;;;;;9.66;100.00;99337.41;4999891;28;20054;-67
2022/09/29 06:39:16;;;;;;;9.55;4.32;;;;;;;9.87;100.00;99347.44;5007346;28;20792;-66
2022/09/29 06:41:55;;;;;;;8.75;4.32;;;;;;;9.87;100.00;99339.38;5014795;28;20073;-66
2022/09/29 06:44:23;;;;;;;8.30;4.10;;;;;;;10.03;100.00;99356.69;5004389;28;20506;-66
2022/09/29 06:46:50;;;;;;;10.85;4.75;;;;;;;10.03;100.00;99347.84;5007993;28;20573;-66
2022/09/29 06:49:16;;;;;;;8.60;4.53;;;;;;;10.12;100.00;99355.56;5008330;28;20049;-67
2022/09/29 06:51:42;;;;;;;9.88;4.55;;;;;;;10.23;100.00;99359.81;5008219;28;20128;-67
2022/09/29 06:54:09;;;;;;;9.88;4.75;;;;;;;10.24;100.00;99355.94;4998860;28;20526;-67
2022/09/29 06:56:35;;;;;;;11.18;5.55;;;;;;;10.28;100.00;99359.41;5005998;28;20493;-67
2022/09/29 06:59:00;;;;;;;11.18;4.88;;;;;;;10.27;100.00;99355.19;4995419;28;20076;-68
2022/09/29 07:01:26;;;;;;;9.95;5.07;;;;;;;10.29;100.00;99360.97;5001107;28;20044;-67
2022/09/29 07:03:51;;;;;;;8.63;4.72;;;;;;;10.43;100.00;99354.81;4998990;28;20030;-66
2022/09/29 07:06:17;;;;;;;11.30;4.65;;;;;;;10.46;100.00;99354.03;5007730;28;20113;-67
2022/09/29 07:08:42;;;;;;;10.93;5.30;;;;;;;10.41;100.00;99362.50;5009244;28;20120;-67
2022/09/29 07:11:09;;;;;;;12.75;5.10;;;;;;;10.47;100.00;99363.66;5008799;28;20080;-66
2022/09/29 07:13:35;;;;;;;9.18;5.03;;;;;;;10.56;100.00;99367.50;5008248;28;20038;-68
2022/09/29 07:16:05;;;;;;;12.38;6.03;;;;;;;10.58;100.00;99365.19;5009361;28;20096;-67
2022/09/29 07:18:33;;;;;;;8.70;5.32;;;;;;;10.63;100.00;99364.00;4998918;28;20487;-66
2022/09/29 07:20:59;;;;;;;11.63;5.10;;;;;;;10.72;100.00;99365.13;5001413;28;20395;-67
2022/09/29 07:23:26;;;;;;;15.35;5.93;;;;;;;10.75;99.50;99374.38;4995505;28;20047;-66
2022/09/29 07:25:51;;;;;;;9.35;5.00;;;;;;;10.85;100.00;99371.69;5000822;28;20857;-66
2022/09/29 07:28:17;;;;;;;12.80;4.88;;;;;;;10.80;99.09;99374.00;5009298;28;20032;-66
2022/09/29 07:30:43;;;;;;;10.57;5.40;;;;;;;10.70;100.00;99372.09;5005937;28;20053;-67
2022/09/29 07:33:08;;;;;;;12.20;5.20;;;;;;;10.81;100.00;99379.00;5005524;28;20299;-66
2022/09/29 07:35:34;;;;;;;9.73;4.55;;;;;;;10.93;100.00;99377.03;4994916;28;20040;-67
2022/09/29 07:37:59;;;;;;;16.38;6.72;;;;;;;11.00;99.02;99385.09;5010112;28;20033;-67
2022/09/29 07:40:26;;;;;;;12.57;5.97;;;;;;;11.19;99.61;99390.06;4996710;28;20542;-66
2022/09/29 07:42:52;;;;;;;13.35;6.05;;;;;;;11.21;99.04;99387.72;5001008;28;20176;-66
2022/09/29 07:45:19;;;;;;;8.07;4.82;;;;;;;11.40;99.02;99385.34;5000155;28;20105;-67
2022/09/29 07:47:44;;;;;;;13.30;5.75;;;;;;;11.59;98.62;99387.59;5009182;28;20037;-67
2022/09/29 07:50:11;;;;;;;10.48;4.30;;;;;;;11.75;98.54;99384.47;4996347;28;20037;-68
2022/09/29 07:52:36;;;;;;;11.05;5.32;;;;;;;11.78;98.54;99394.47;5003470;28;20069;-66
2022/09/29 07:55:02;;;;;;;11.02;5.68;;;;;;;11.90;98.63;99388.63;5004333;28;20054;-67
2022/09/29 07:57:28;;;;;;;12.65;6.18;;;;;;;12.10;97.83;99392.34;5009938;28;20204;-67
2022/09/29 07:59:53;;;;;;;9.98;5.22;;;;;;;12.35;97.07;99403.00;5005722;28;20538;-66
2022/09/29 08:02:20;;;;;;;13.38;6.10;;;;;;;12.37;96.65;99406.03;5001318;28;20036;-67
2022/09/29 08:04:46;;;;;;;11.65;5.38;;;;;;;12.40;96.88;99397.94;5003464;28;20038;-67
2022/09/29 08:07:11;;;;;;;10.88;5.93;;;;;;;12.51;95.35;99395.13;5010320;28;20038;-67
2022/09/29 08:09:36;;;;;;;16.77;6.72;;;;;;;12.35;95.92;99392.94;5008741;28;20046;-67
2022/09/29 08:12:02;;;;;;;12.90;5.93;;;;;;;12.41;96.62;99395.97;5000983;28;20045;-68
2022/09/29 08:14:28;;;;;;;10.60;5.55;;;;;;;12.51;96.08;99406.72;5008561;28;20476;-67
2022/09/29 08:16:53;;;;;;;10.52;5.35;;;;;;;12.64;95.80;99404.28;5005946;28;20093;-67
2022/09/29 08:19:19;;;;;;;11.55;5.63;;;;;;;12.65;95.78;99409.31;5000199;28;20042;-67
2022/09/29 08:21:48;;;;;;;12.23;5.72;;;;;;;12.54;95.44;99405.16;4998496;28;20044;-66
2022/09/29 08:24:14;;;;;;;11.60;5.20;;;;;;;12.64;96.07;99412.38;5012191;28;20333;-66
2022/09/29 08:26:40;;;;;;;11.05;5.13;;;;;;;12.72;95.74;99418.53;5013709;28;20080;-68
2022/09/29 08:29:05;;;;;;;11.35;5.57;;;;;;;12.67;95.85;99417.78;5013912;28;20041;-67
2022/09/29 08:31:31;;;;;;;12.10;5.70;;;;;;;12.75;95.83;99409.59;5013021;28;20487;-67
2022/09/29 08:34:00;;;;;;;13.48;5.70;;;;;;;12.83;95.26;99417.25;5006783;28;20042;-67
2022/09/29 08:36:25;;;;;;;14.55;5.28;;;;;;;12.88;95.27;99411.41;5007542;28;20061;-66
2022/09/29 08:38:53;;;;;;;10.43;5.30;;;;;;;12.91;95.28;99424.09;5001328;28;20034;-66
2022/09/29 08:41:40;;;;;;;11.07;5.03;;;;;;;12.92;94.98;99419.47;5015632;28;20040;-66
2022/09/29 08:44:13;;;;;;;8.50;5.05;;;;;;;13.08;94.90;99417.03;5001406;28;20111;-68
2022/09/29 08:46:45;;;;;;;10.32;5.22;;;;;;;13.18;94.27;99424.28;5009592;28;20093;-66
2022/09/29 08:49:19;;;;;;;9.43;4.97;;;;;;;13.17;94.07;99431.63;5017382;28;20508;-67
2022/09/29 08:51:53;;;;;;;12.48;5.20;;;;;;;13.30;93.23;99429.94;5009981;28;20037;-67
2022/09/29 08:54:38;;;;;;;14.38;5.78;;;;;;;13.38;93.91;99430.63;5004305;28;20491;-67
2022/09/29 08:57:06;;;;;;;13.18;6.05;;;;;;;13.36;93.56;99432.94;4999917;28;20038;-67
2022/09/29 08:59:32;;;;;;;10.00;4.85;;;;;;;13.49;93.44;99436.69;5013535;28;20457;-68
2022/09/29 09:02:21;;;;;;;11.63;5.65;;;;;;;13.67;93.06;99441.88;5014939;28;20025;-66
2022/09/29 09:05:11;;;;;;;15.68;5.28;;;;;;;14.00;92.90;99443.78;5004632;28;20037;-67
2022/09/29 09:07:55;;;;;;;10.40;5.40;;;;;;;14.11;92.18;99447.88;5009825;28;20030;-67
2022/09/29 09:10:38;;;;;;;11.82;5.40;;;;;;;14.38;90.38;99443.25;4998398;28;20719;-67
2022/09/29 09:13:22;;;;;;;10.43;4.82;;;;;;;14.48;90.38;99452.38;5011846;28;20026;-66
2022/09/29 09:16:30;;;;;;;11.40;4.43;;;;;;;14.56;89.63;99447.63;5010302;28;20033;-67
2022/09/29 09:19:33;;;;;;;9.35;4.90;;;;;;;14.56;90.10;99453.03;4985223;28;20049;-67
2022/09/29 09:22:20;;;;;;;11.57;5.07;;;;;;;14.90;89.67;99448.25;5006971;28;20295;-68
2022/09/29 09:25:19;;;;;;;7.55;4.50;;;;;;;15.07;88.65;99447.94;5011303;28;20037;-68
2022/09/29 09:27:52;;;;;;;8.70;3.75;;;;;;;15.38;87.92;99451.25;4973139;28;20049;-67
2022/09/29 09:30:19;;;;;;;13.27;5.10;;;;;;;15.53;85.64;99457.19;5010918;28;20034;-67
2022/09/29 09:32:55;;;;;;;8.30;3.72;;;;;;;15.71;84.80;99455.69;5014348;28;20377;-68
2022/09/29 09:35:46;;;;;;;6.93;3.90;;;;;;;15.78;84.13;99454.75;5004660;28;20038;-69
2022/09/29 09:38:19;;;;;;;10.02;3.60;;;;;;;15.96;83.92;99463.31;5008697;28;20046;-68
2022/09/29 09:40:50;;;;;;;9.27;3.70;;;;;;;16.08;83.46;99458.00;4992607;28;20321;-68
2022/09/29 09:43:35;;;;;;;9.75;4.03;;;;;;;16.21;83.37;99464.31;5002191;28;20046;-68
2022/09/29 09:46:40;;;;;;;6.75;3.05;;;;;;;16.18;81.79;99456.25;5007685;28;20026;-67
2022/09/29 09:49:32;;;;;;;5.65;3.13;;;;;;;16.18;81.74;99457.00;4953373;28;20050;-69
2022/09/29 09:52:38;;;;;;;9.27;3.38;;;;;;;16.22;81.75;99457.69;5000036;28;20514;-67
2022/09/29 09:55:05;;;;;;;9.07;3.67;;;;;;;16.35;80.76;99465.19;4909023;29;20063;-68
2022/09/29 09:57:39;;;;;;;10.00;4.13;;;;;;;16.28;79.43;99461.44;4985022;28;20592;-67
2022/09/29 10:00:22;;;;;;;7.05;3.75;;;;;;;16.20;80.62;99475.63;5008396;28;20030;-68
2022/09/29 10:02:49;;;;;;;6.13;3.78;;;;;;;16.09;80.60;99462.25;5003148;28;20659;-66
2022/09/29 10:05:20;;;;;;;7.35;4.05;;;;;;;16.00;79.98;99458.56;4996428;28;20049;-68
2022/09/29 10:07:47;;;;;;;7.00;3.78;;;;;;;16.10;80.73;99463.75;5004498;28;20675;-68
2022/09/29 10:10:25;;;;;;;7.97;3.63;;;;;;;16.19;81.25;99474.84;5008503;28;20049;-68
2022/09/29 10:13:12;;;;;;;8.60;3.67;;;;;;;16.30;81.97;99468.41;5007220;28;20457;-69
2022/09/29 10:15:46;;;;;;;6.35;2.97;;;;;;;16.34;81.14;99475.28;5008444;28;20030;-69
2022/09/29 10:18:40;;;;;;;6.28;3.08;;;;;;;16.28;80.05;99472.31;5006717;28;20044;-67
2022/09/29 10:21:25;;;;;;;8.52;3.15;;;;;;;16.32;80.04;99469.50;4986819;28;20057;-67
2022/09/29 10:23:55;;;;;;;6.93;3.00;;;;;;;16.40;79.90;99472.81;4995158;28;20034;-67
2022/09/29 10:26:24;;;;;;;17.40;3.85;;;;;;;16.44;79.42;99477.00;5007642;28;20037;-67
2022/09/29 10:28:52;;;;;;;6.43;3.20;;;;;;;16.38;79.22;99475.19;5009443;28;20441;-67
2022/09/29 10:31:22;;;;;;;10.57;4.30;;;;;;;16.26;78.85;99474.69;4990119;28;20038;-67
2022/09/29 10:33:54;;;;;;;6.30;3.35;;;;;;;16.16;79.46;99481.09;5000780;28;20030;-68
2022/09/29 10:36:21;;;;;;;8.80;4.07;;;;;;;16.08;79.14;99474.31;5006138;28;20045;-67
2022/09/29 10:38:50;;;;;;;7.65;3.42;;;;;;;16.24;79.21;99489.88;5008629;28;20029;-67
2022/09/29 10:41:18;;;;;;;5.90;2.95;;;;;;;16.13;80.35;99481.97;4993026;28;20040;-67
2022/09/29 10:43:45;;;;;;;6.88;3.50;;;;;;;16.08;80.76;99493.31;5002479;28;20505;-68
2022/09/29 10:46:32;;;;;;;9.98;4.30;;;;;;;15.84;82.13;99482.94;5005618;28;20583;-67
2022/09/29 10:49:17;;;;;;;9.27;3.97;;;;;;;15.92;82.13;99487.84;5002666;28;20554;-68
2022/09/29 10:51:53;;;;;;;9.75;3.95;;;;;;;15.98;81.95;99488.88;4996662;28;20049;-68
2022/09/29 10:54:24;;;;;;;9.55;3.40;;;;;;;15.99;81.75;99489.63;5007501;28;20092;-68
2022/09/29 10:56:51;;;;;;;6.28;3.42;;;;;;;15.86;82.48;99494.94;4982612;28;20153;-68
2022/09/29 10:59:18;;;;;;;7.40;3.97;;;;;;;15.91;82.30;99488.25;5010262;28;20513;-68
2022/09/29 11:01:50;;;;;;;8.23;3.50;;;;;;;16.05;81.92;99501.53;5009138;28;20076;-68
2022/09/29 11:04:26;;;;;;;8.75;3.92;;;;;;;16.02;80.90;99495.00;5004848;28;20041;-68
2022/09/29 11:06:52;;;;;;;7.78;3.83;;;;;;;16.02;79.97;99500.44;5005355;28;20030;-68
2022/09/29 11:09:18;;;;;;;10.38;3.83;;;;;;;16.07;80.00;99504.59;5008938;28;20057;-67
2022/09/29 11:11:46;;;;;;;6.38;2.75;;;;;;;16.23;80.10;99502.69;5008204;28;20042;-69
2022/09/29 11:14:39;;;;;;;6.13;3.33;;;;;;;16.37;80.17;99506.28;5009023;28;20038;-68
2022/09/29 11:17:49;;;;;;;5.85;3.00;;;;;;;16.18;79.35;99503.19;4988173;28;20038;-68
2022/09/29 11:20:16;;;;;;;13.02;3.67;;;;;;;16.10;80.02;99504.50;5010426;28;20103;-68
2022/09/29 11:23:00;;;;;;;5.40;3.10;;;;;;;16.24;79.93;99515.09;5000910;28;20698;-67
2022/09/29 11:25:35;;;;;;;5.57;2.97;;;;;;;16.32;79.98;99514.94;4989900;28;20038;-67
2022/09/29 11:28:09;;;;;;;4.10;2.47;;;;;;;16.21;79.07;99513.22;5009051;28;20041;-67
2022/09/29 11:30:48;;;;;;;3.10;2.13;;;;;;;16.08;79.41;99517.78;5007393;28;20030;-68
2022/09/29 11:33:32;;;;;;;6.28;2.75;;;;;;;16.08;79.79;99515.06;5004779;28;20065;-68
2022/09/29 11:36:12;;;;;;;2.33;1.58;;;;;;;16.10;79.31;99520.81;5002530;28;20056;-67
2022/09/29 11:38:47;;;;;;;3.00;1.63;;;;;;;15.93;78.57;99521.19;5005711;28;20034;-68
2022/09/29 11:41:46;;;;;;;4.40;2.00;;;;;;;15.83;78.30;99524.88;5005065;28;20113;-68
2022/09/29 11:44:39;;;;;;;3.25;1.90;;;;;;;15.83;78.93;99527.59;4954222;28;20045;-67
2022/09/29 11:47:13;;;;;;;3.90;1.73;;;;;;;15.72;78.94;99533.22;5003834;28;20093;-67
2022/09/29 11:49:57;;;;;;;33.95;6.72;;;;;;;15.70;79.69;99541.00;4996849;28;20061;-68
2022/09/29 11:52:47;;;;;;;12.70;3.90;;;;;;;15.68;79.76;99534.47;4998853;28;20038;-67
2022/09/29 11:55:27;;;;;;;4.25;2.28;;;;;;;15.75;79.92;99540.53;5002835;28;20486;-67